This is the latest recevied weather packets stored in our database for station/object K2ATL. If no packets are shown the sender has not sent any weather packets the latest 10 day(s).
| Time | Temp. | Humidity | Pressure | Rain* | Wind** | Luminosity | Snow |
|---|---|---|---|---|---|---|---|
| 1787870045 | 22.78° C | 94% | 1101.1 hPa | 0 mm | - | 105 W/m² | - |
| 1787869743 | 23.33° C | 92% | 1100.9 hPa | 0 mm | - | 168 W/m² | - |
| 1787869443 | 23.33° C | 90% | 1100.8 hPa | 0 mm | - | 208 W/m² | - |
| 1787869138 | 22.22° C | 90% | 1100.9 hPa | 0 mm | - | 273 W/m² | - |
| 1787868837 | 21.67° C | 94% | 1100.8 hPa | 0 mm | - | 287 W/m² | - |
| 1787868535 | 21.11° C | 95% | 1100.8 hPa | 0 mm | - | 330 W/m² | - |
| 1787868235 | 22.78° C | 93% | 1100.9 hPa | 0 mm | - | 249 W/m² | - |
| 1787867931 | 22.22° C | 93% | 1101 hPa | 0 mm | - | 314 W/m² | - |
| 1787867626 | 22.22° C | 92% | 1100.8 hPa | 0 mm | - | 266 W/m² | - |
| 1787867326 | 20.56° C | 94% | 1100.8 hPa | 0 mm | - | 314 W/m² | - |
| 1787867022 | 20.56° C | 96% | 1100.9 hPa | 0 mm | - | 283 W/m² | - |
| 1787866717 | 21.11° C | 96% | 1100.8 hPa | 0 mm | - | 239 W/m² | - |
| 1787866415 | 20° C | 97% | 1101 hPa | 0 mm | - | 237 W/m² | - |
| 1787866110 | 20° C | 98% | 1101 hPa | 0 mm | - | 209 W/m² | - |
| 1787865805 | 20° C | 98% | 1100.9 hPa | 0 mm | - | 201 W/m² | - |
| 1787865501 | 20° C | 98% | 1100.7 hPa | 0 mm | - | 197 W/m² | - |
| 1787865195 | 20° C | 99% | 1101.1 hPa | 0 mm | - | 202 W/m² | - |
| 1787864892 | 20.56° C | 99% | 1101 hPa | 0 mm | - | 170 W/m² | - |
| 1787864592 | 20.56° C | 99% | 1101 hPa | 0 mm | - | 159 W/m² | - |
| 1787864286 | 19.44° C | 99% | 1101.1 hPa | 0 mm | - | 363 W/m² | - |
| 1787863981 | 18.89° C | 99% | 1101.5 hPa | 0 mm | - | 426 W/m² | - |
| 1787863679 | 19.44° C | 99% | 1101.2 hPa | 0 mm | - | 232 W/m² | - |
| 1787863378 | 19.44° C | 99% | 1101.2 hPa | 0 mm | - | 353 W/m² | - |
| 1787863074 | 19.44° C | 99% | 1101.1 hPa | 0 mm | - | 301 W/m² | - |
| 1787862769 | 20° C | 99% | 1101.1 hPa | 0 mm | - | 165 W/m² | - |
* Rain latest hour (hover to see other rain measurements)
** Current wind speed in m/s (hover to see current wind gust speed)